Conley, Georgia
Current Conditions -  °F | °C
As of 3:52 PM on Saturday 25 Oct 2014 (Local Time) from KATL Reporting Station
Clear Clear  
Wind Chill: 76°   Ceiling: Unl
Heat Index: 76°   Visibility: 10mi
Dew Point: 44°   Wind: 9mph
Humidity: 32%   Direction: 310°NW
Pressure: 30.01"   Gusts: NA
Location:  33.64°N, 84.32°W
Report Text: KATL 251952Z 31008KT 10SM CLR 24/07 A3001 RMK AO2 SLP158 T02440067
Loading
Personal Weather Stations






























Interactive Weather Map
Tropical Storm Tracking
New forecast layout! Learn more

10-Day Weather Forecast

Advertisements
Track Severe Weather on mobile